TAF Text Data
IDs:
Format:
Raw Decoded Include METAR

Data at: 0033 UTC 14 May 2021

KEWN 132328Z 1400/1424 11010KT P6SM SKC
  FM140200 03003KT P6SM SKC
  FM141330 03008G13KT P6SM SCT070